Latest Weather Observations for Montague Island

IDN60801

Issued at 6:03 pm EDT Wednesday 22 November 2017 (issued every 30 minutes, with the page automatically refreshed every 10 minutes)

About weather observations | Map of weather stations | Latest weather observations for NSW | Other Formats
Station Details ID: 069017 Name: MONTAGUE ISLAND LIGHTHOUSE Lat: -36.25 Lon: 150.23 Height: 52.0 m
Data from the previous 72 hours. | See also: Recent months at Montague Island
Date/Time
EDT
Temp
°C
App
Temp
°C
Dew
Point
°C
Rel
Hum
%
Delta-T
°C
Wind Press
QNH
hPa
Press
MSL
hPa
Rain since
9am
mm
Dir  Spd
km/h
Gust
km/h
Spd
kts
Gust
kts
22/06:00pm 19.2 17.4 15.5 79 2.2 NNE 19 24 10 13 1017.4 1017.3 0.0
22/05:30pm 19.6 17.7 15.7 78 2.3 NNE 20 24 11 13 1017.5 1017.4 0.0
22/05:00pm 19.9 18.1 16.0 78 2.3 NNE 20 24 11 13 1017.6 1017.5 0.0
22/04:30pm 20.0 18.2 15.4 75 2.7 NNE 19 24 10 13 1017.8 1017.7 0.0
22/04:00pm 20.2 18.2 15.6 75 2.7 NNE 20 26 11 14 1017.9 1017.8 0.0
22/03:30pm 20.5 18.6 15.7 74 2.9 NE 20 26 11 14 1018.0 1017.9 0.0
22/03:00pm 20.4 18.1 15.8 75 2.7 NE 22 26 12 14 1018.3 1018.2 0.0
22/02:30pm 20.4 18.2 16.0 76 2.6 NE 22 26 12 14 1018.5 1018.4 0.0
22/02:00pm 20.2 17.8 15.4 74 2.8 NE 22 26 12 14 1018.8 1018.7 0.0
22/01:30pm 20.1 17.9 14.9 72 3.1 NE 20 26 11 14 1019.0 1018.9 0.0
22/01:00pm 20.1 17.8 14.7 71 3.2 NE 20 24 11 13 1019.4 1019.3 0.0
22/12:30pm 19.7 18.5 15.1 75 2.7 NE 15 19 8 10 1019.7 1019.6 0.0
22/12:00pm 19.5 18.7 15.2 76 2.5 NE 13 17 7 9 1020.0 1019.9 0.0
22/11:30am 19.5 18.5 14.5 73 2.9 NE 13 17 7 9 1020.3 1020.2 0.0
22/11:00am 19.9 19.2 14.3 70 3.2 NE 11 15 6 8 1020.5 1020.4 0.0
22/10:30am 20.4 19.9 15.0 71 3.2 NNE 11 15 6 8 1020.9 1020.8 0.0
22/10:00am 19.0 18.6 14.1 73 2.8 NNE 9 13 5 7 1021.1 1021.0 0.0
22/09:30am 18.7 18.1 13.6 72 2.9 NNE 9 13 5 7 1021.3 1021.2 0.0
22/09:00am 18.3 17.6 13.2 72 2.9 NNE 9 13 5 7 1021.5 1021.4 0.0
22/08:30am 18.3 18.1 13.6 74 2.7 N 7 11 4 6 1021.5 1021.4 0.0
22/08:00am 17.9 17.8 13.2 74 2.6 NNW 6 9 3 5 1021.4 1021.3 0.0
22/07:30am 17.5 17.5 13.6 78 2.2 NNW 6 9 3 5 1021.2 1021.1 0.0
22/07:00am 17.0 17.0 14.3 84 1.5 NNW 7 9 4 5 1021.1 1021.0 0.0
22/06:30am 16.2 16.3 13.9 86 1.3 NW 6 7 3 4 1021.0 1020.9 0.0
22/06:00am 16.1 16.0 13.8 86 1.3 NW 7 9 4 5 1020.9 1020.8 0.0
22/05:30am 16.1 16.0 13.2 83 1.6 NNW 6 7 3 4 1020.8 1020.7 0.0
22/05:00am 16.3 15.9 13.0 81 1.8 NW 7 9 4 5 1020.9 1020.8 0.0
22/04:30am 16.4 16.1 13.3 82 1.7 NNW 7 9 4 5 1020.9 1020.8 0.0
22/04:00am 16.5 16.4 13.2 81 1.8 NNW 6 7 3 4 1020.9 1020.8 0.0
22/03:30am 16.8 16.9 13.9 83 1.6 NNW 6 7 3 4 1021.0 1020.9 0.0
22/03:00am 16.7 16.6 13.8 83 1.6 NW 7 9 4 5 1021.2 1021.1 0.0
22/02:30am 16.7 16.6 13.8 83 1.6 NW 7 9 4 5 1021.3 1021.2 0.0
22/02:00am 16.9 16.8 14.0 83 1.6 NW 7 9 4 5 1021.4 1021.3 0.0
22/01:30am 17.1 17.0 14.0 82 1.8 NW 7 11 4 6 1021.7 1021.6 0.0
22/01:00am 17.9 16.2 13.6 76 2.4 NNE 15 17 8 9 1021.9 1021.8 0.0
22/12:30am 18.0 16.4 13.9 77 2.3 NNE 15 19 8 10 1022.1 1022.0 0.0
22/12:00am 17.9 16.3 13.8 77 2.3 NNE 15 17 8 9 1022.3 1022.2 0.0
 
Date/Time
EDT
Temp
°C
App
Temp
°C
Dew
Point
°C
Rel
Hum
%
Delta-T
°C
Wind Press
QNH
hPa
Press
MSL
hPa
Rain since
9am
mm
Dir  Spd
km/h
Gust
km/h
Spd
kts
Gust
kts
21/11:30pm 17.9 15.8 13.6 76 2.4 NNE 17 19 9 10 1022.6 1022.5 0.0
21/11:00pm 17.9 16.2 13.6 76 2.4 NNE 15 19 8 10 1022.8 1022.7 0.0
21/10:30pm 18.0 15.9 13.7 76 2.4 NNE 17 19 9 10 1022.8 1022.7 0.0
21/10:00pm 18.1 16.1 13.8 76 2.4 NNE 17 20 9 11 1023.0 1022.9 0.0
21/09:30pm 18.2 16.1 13.5 74 2.7 NNE 17 20 9 11 1023.1 1023.0 0.0
21/09:00pm 18.3 16.3 14.0 76 2.5 NNE 17 20 9 11 1022.9 1022.8 0.0
21/08:30pm 18.4 16.7 13.7 74 2.7 NNE 15 19 8 10 1022.9 1022.8 0.0
21/08:00pm 18.4 16.7 13.7 74 2.7 NNE 15 19 8 10 1022.7 1022.6 0.0
21/07:30pm 18.6 16.8 13.2 71 3.1 NNE 15 19 8 10 1022.5 1022.4 0.0
21/07:00pm 18.8 16.8 12.8 68 3.4 NNE 15 19 8 10 1022.3 1022.2 0.0
21/06:30pm 19.0 16.3 13.0 68 3.4 NE 19 22 10 12 1022.3 1022.2 0.0
21/06:00pm 19.1 16.2 12.8 67 3.5 NE 20 24 11 13 1022.3 1022.2 0.0
21/05:30pm 19.3 16.1 13.0 67 3.6 NE 22 24 12 13 1022.3 1022.2 0.0
21/05:00pm 19.4 16.5 12.9 66 3.7 NE 20 24 11 13 1022.3 1022.2 0.0
21/04:30pm 19.4 16.0 12.4 64 3.9 NE 22 24 12 13 1022.2 1022.1 0.0
21/04:00pm 19.7 16.9 12.5 63 4.0 NE 19 22 10 12 1022.4 1022.3 0.0
21/03:30pm 19.8 17.0 12.6 63 4.1 NE 19 20 10 11 1022.7 1022.6 0.0
21/03:00pm 19.8 17.3 12.3 62 4.2 NE 17 19 9 10 1023.0 1022.9 0.0
21/02:30pm 20.3 18.2 12.3 60 4.5 NE 15 19 8 10 1023.5 1023.4 0.0
21/02:00pm 20.7 18.4 11.9 57 4.9 NNE 15 19 8 10 1023.8 1023.7 0.0
21/01:30pm 20.7 18.4 11.6 56 5.1 NNE 15 19 8 10 1024.0 1023.9 0.0
21/01:00pm 21.1 18.6 12.3 57 4.9 NNE 17 20 9 11 1024.5 1024.4 0.0
21/12:30pm 20.8 19.0 12.0 57 4.9 NNE 13 19 7 10 1024.7 1024.6 0.0
21/12:00pm 20.8 18.8 11.4 55 5.2 NNE 13 19 7 10 1025.1 1025.0 0.0
21/11:30am 20.0 17.9 11.2 57 4.8 NNE 13 17 7 9 1025.3 1025.2 0.0
21/11:00am 19.7 18.0 12.5 63 4.0 NNE 13 17 7 9 1025.4 1025.3 0.0
21/10:30am 19.6 18.8 14.0 70 3.2 NNE 11 17 6 9 1025.4 1025.3 0.0
21/10:00am 19.2 18.6 14.5 74 2.7 NNE 11 15 6 8 1025.2 1025.1 0.0
21/09:30am 19.3 19.4 15.4 78 2.3 NNE 9 13 5 7 1025.0 1024.9 0.0
21/09:00am 18.5 18.9 15.2 81 1.9 NNE 7 13 4 7 1025.2 1025.1 0.0
21/08:30am 18.5 18.9 15.2 81 1.9 NNE 7 9 4 5 1025.2 1025.1 0.0
21/08:00am 17.9 18.5 15.3 85 1.5 N 6 7 3 4 1025.1 1025.0 0.0
21/07:30am 17.6 18.0 15.4 87 1.3 NNW 7 9 4 5 1024.8 1024.7 0.0
21/07:00am 17.3 17.7 15.3 88 1.2 NNW 7 9 4 5 1024.7 1024.6 0.0
21/06:30am 17.1 17.4 15.1 88 1.2 N 7 11 4 6 1024.6 1024.5 0.0
21/06:00am 17.3 17.1 14.8 85 1.4 N 9 13 5 7 1024.5 1024.4 0.0
21/05:30am 17.0 17.2 14.6 86 1.4 N 7 13 4 7 1024.0 1023.9 0.0
21/05:00am 17.0 17.2 14.6 86 1.4 NNW 7 9 4 5 1023.9 1023.8 0.0
21/04:30am 17.0 17.1 14.5 85 1.4 NW 7 9 4 5 1023.9 1023.8 0.0
21/04:00am 17.0 17.2 14.6 86 1.4 NNW 7 9 4 5 1024.0 1023.9 0.0
21/03:30am 17.0 17.2 14.6 86 1.4 NW 7 11 4 6 1024.1 1024.0 0.0
21/03:00am 17.1 17.3 14.6 85 1.4 NW 7 11 4 6 1024.3 1024.2 0.0
21/02:30am 17.3 17.6 15.1 87 1.3 NW 7 9 4 5 1024.4 1024.3 0.0
21/02:00am 17.2 17.6 15.4 89 1.0 NW 7 9 4 5 1024.6 1024.5 0.0
21/01:30am 17.3 18.0 15.5 89 1.1 NW 6 7 3 4 1024.8 1024.7 0.0
21/01:00am 17.6 18.3 15.6 88 1.2 NW 6 7 3 4 1025.1 1025.0 0.0
21/12:30am 17.8 18.5 15.6 87 1.3 NW 6 7 3 4 1025.3 1025.2 0.0
21/12:00am 18.1 18.0 15.0 82 1.8 NNW 9 13 5 7 1025.5 1025.4 0.0
 
Date/Time
EDT
Temp
°C
App
Temp
°C
Dew
Point
°C
Rel
Hum
%
Delta-T
°C
Wind Press
QNH
hPa
Press
MSL
hPa
Rain since
9am
mm
Dir  Spd
km/h
Gust
km/h
Spd
kts
Gust
kts
20/11:30pm 18.2 17.4 14.1 77 2.4 N 11 13 6 7 1025.4 1025.3 0.0
20/11:00pm 18.2 17.9 14.3 78 2.2 N 9 13 5 7 1025.5 1025.4 0.0
20/10:30pm 18.5 17.8 14.4 77 2.4 NNE 11 15 6 8 1025.5 1025.4 0.0
20/10:00pm 18.5 17.9 14.6 78 2.3 NNE 11 15 6 8 1025.7 1025.6 0.0
20/09:30pm 18.6 17.6 14.5 77 2.4 NNE 13 15 7 8 1025.6 1025.5 0.0
20/09:00pm 18.5 17.8 14.2 76 2.5 N 11 13 6 7 1025.4 1025.3 0.0
20/08:30pm 18.7 18.0 14.2 75 2.6 NNE 11 13 6 7 1025.2 1025.1 0.0
20/08:00pm 18.7 18.0 14.4 76 2.5 NNE 11 15 6 8 1025.0 1024.9 0.0
20/07:30pm 18.9 17.8 14.2 74 2.7 NNE 13 15 7 8 1024.9 1024.8 0.0
20/07:00pm 19.1 18.0 14.4 74 2.7 NNE 13 15 7 8 1024.9 1024.8 0.0
20/06:30pm 19.4 18.3 14.4 73 2.9 NNE 13 17 7 9 1024.7 1024.6 0.0
20/06:00pm 19.7 18.7 14.7 73 2.9 NNE 13 19 7 10 1024.5 1024.4 0.0
20/05:30pm 20.1 19.1 14.7 71 3.2 NNE 13 19 7 10 1024.5 1024.4 0.0
20/05:00pm 20.2 19.0 15.0 72 3.0 NE 15 19 8 10 1024.7 1024.6 0.0
20/04:30pm 20.2 18.9 14.8 71 3.2 NE 15 17 8 9 1024.7 1024.6 0.0
20/04:00pm 20.3 18.4 14.2 68 3.5 NE 17 19 9 10 1024.6 1024.5 0.0
20/03:30pm 20.4 18.6 14.5 69 3.4 NE 17 19 9 10 1024.7 1024.6 0.0
20/03:00pm 20.4 19.0 14.5 69 3.4 NE 15 19 8 10 1025.1 1025.0 0.0
20/02:30pm 20.7 19.5 14.1 66 3.8 NE 13 19 7 10 1025.3 1025.2 0.0
20/02:00pm 21.7 21.1 14.6 64 4.2 NNE 11 13 6 7 1025.5 1025.4 0.0
20/01:30pm 21.3 20.9 14.0 63 4.2 NNE 9 15 5 8 1025.7 1025.6 0.0
20/01:00pm 21.5 20.8 13.2 59 4.7 NNE 9 15 5 8 1025.8 1025.7 0.0
20/12:30pm 21.6 21.2 14.0 62 4.4 NNE 9 15 5 8 1025.9 1025.8 0.0
20/12:00pm 21.6 21.6 14.3 63 4.3 NNE 7 11 4 6 1026.2 1026.1 0.0
20/11:30am 21.0 20.9 13.9 64 4.1 NE 7 11 4 6 1026.4 1026.3 0.0
20/11:00am 20.9 21.2 13.4 62 4.3 NNW 4 7 2 4 1026.6 1026.5 0.0
20/10:30am 19.8 20.5 14.4 71 3.1 NE 4 7 2 4 1026.8 1026.7 0.0
20/10:00am 20.1 20.6 14.0 68 3.5 NNW 4 7 2 4 1026.8 1026.7 0.0
20/09:30am 19.6 20.3 13.5 68 3.5 NW 2 6 1 3 1026.6 1026.5 0.0
20/09:00am 19.2 20.3 14.5 74 2.7 W 2 6 1 3 1026.5 1026.4 0.0
20/08:30am 18.8 19.8 15.3 80 2.1 W 4 7 2 4 1026.3 1026.2 0.0
20/08:00am 18.0 19.5 15.6 86 1.4 WNW 2 6 1 3 1026.1 1026.0 0.0
20/07:30am 17.7 18.3 15.9 89 1.1 WNW 7 11 4 6 1025.7 1025.6 0.0
20/07:00am 17.3 18.2 16.0 92 0.8 W 6 9 3 5 1025.4 1025.3 0.0
20/06:30am 16.6 17.3 15.5 93 0.6 W 6 9 3 5 1025.3 1025.2 0.0
20/06:00am 16.5 17.0 15.5 94 0.6 W 7 9 4 5 1025.3 1025.2 0.0
20/05:30am 16.4 16.8 15.4 94 0.6 W 7 9 4 5 1025.0 1024.9 0.0
20/05:00am 16.8 17.0 15.7 93 0.6 WNW 9 13 5 7 1024.4 1024.3 0.0
20/04:30am 17.1 17.8 16.0 93 0.7 NNW 7 9 4 5 1024.7 1024.6 0.0
20/04:00am 17.1 17.8 16.0 93 0.6 NW 7 9 4 5 1024.6 1024.5 0.0
20/03:30am 17.1 18.0 16.0 93 0.7 NW 6 7 3 4 1024.5 1024.4 0.0
20/03:00am 17.1 17.8 16.0 93 0.6 WNW 7 7 4 4 1024.5 1024.4 0.0
20/02:30am 17.2 18.0 15.9 92 0.8 WNW 6 7 3 4 1024.6 1024.5 0.0
20/02:00am 17.7 18.7 16.4 92 0.8 NW 6 7 3 4 1024.6 1024.5 0.0
20/01:30am 17.7 19.0 16.2 91 0.9 WNW 4 6 2 3 1024.8 1024.7 0.0
20/01:00am 18.1 19.5 16.3 89 1.1 WNW 4 6 2 3 1025.0 1024.9 0.0
20/12:30am 18.4 19.2 16.4 88 1.2 N 7 9 4 5 1025.0 1024.9 0.0
20/12:00am 18.6 19.5 16.6 88 1.2 N 7 11 4 6 1025.2 1025.1 0.0
 
Date/Time
EDT
Temp
°C
App
Temp
°C
Dew
Point
°C
Rel
Hum
%
Delta-T
°C
Wind Press
QNH
hPa
Press
MSL
hPa
Rain since
9am
mm
Dir  Spd
km/h
Gust
km/h
Spd
kts
Gust
kts
19/11:30pm 18.7 19.3 16.7 88 1.2 NNE 9 13 5 7 1025.3 1025.2 0.0
19/11:00pm 18.6 19.5 16.6 88 1.2 N 7 11 4 6 1025.4 1025.3 0.0
19/10:30pm 18.6 19.2 16.8 89 1.1 NNE 9 13 5 7 1025.5 1025.4 0.0
19/10:00pm 18.8 19.6 16.4 86 1.4 NNE 7 11 4 6 1025.7 1025.6 0.0
19/09:30pm 18.9 19.8 16.7 87 1.3 NNE 7 9 4 5 1025.5 1025.4 0.0
19/09:00pm 18.9 20.0 17.0 89 1.1 NE 7 11 4 6 1025.3 1025.2 0.0
19/08:30pm 18.7 19.3 16.9 89 1.1 ENE 9 13 5 7 1025.0 1024.9 0.0
19/08:00pm 18.7 19.6 16.7 88 1.2 ENE 7 11 4 6 1024.9 1024.8 0.0
19/07:30pm 18.9 19.2 16.1 84 1.7 ENE 9 13 5 7 1024.6 1024.5 0.0
19/07:00pm 19.0 19.3 16.0 83 1.8 ENE 9 13 5 7 1024.4 1024.3 0.0
19/06:30pm 19.3 19.6 16.0 81 2.0 NE 9 13 5 7 1024.0 1023.9 0.0

Other Formats:

Comma delimited format used in spreadsheet applications
http://www.bom.gov.au/fwo/IDN60801/IDN60801.94939.axf

JavaScript Object Notation format (JSON) in row-major order
http://www.bom.gov.au/fwo/IDN60801/IDN60801.94939.json